createdAt,value
2023-02-05T00:01:23.749Z,-2.52
2023-02-05T00:03:50.363Z,-2.54
2023-02-05T00:06:16.783Z,-2.46
2023-02-05T00:08:43.261Z,-2.54
2023-02-05T00:11:09.849Z,-2.56
2023-02-05T00:13:37.622Z,-2.63
2023-02-05T00:16:09.582Z,-2.78
2023-02-05T00:18:37.412Z,-2.75
2023-02-05T00:21:05.280Z,-2.79
2023-02-05T00:23:32.115Z,-2.82
2023-02-05T00:25:58.570Z,-2.85
2023-02-05T00:28:25.023Z,-2.86
2023-02-05T00:30:51.599Z,-2.77
2023-02-05T00:33:18.199Z,-2.77
2023-02-05T00:35:45.782Z,-2.77
2023-02-05T00:38:12.475Z,-2.80
2023-02-05T00:40:38.901Z,-2.85
2023-02-05T00:43:05.327Z,-2.83
2023-02-05T00:45:35.266Z,-2.83
2023-02-05T00:48:03.378Z,-2.92
2023-02-05T00:50:29.796Z,-2.87
2023-02-05T00:52:56.361Z,-2.92
2023-02-05T00:55:23.296Z,-2.93
2023-02-05T00:57:50.222Z,-2.95
2023-02-05T01:00:17.318Z,-2.88
2023-02-05T01:02:43.970Z,-3.03
2023-02-05T01:05:10.624Z,-3.04
2023-02-05T01:07:37.017Z,-2.92
2023-02-05T01:10:04.944Z,-3.04
2023-02-05T01:12:33.265Z,-3.16
2023-02-05T01:15:00.850Z,-2.96
2023-02-05T01:17:27.318Z,-3.05
2023-02-05T01:19:53.757Z,-3.30
2023-02-05T01:22:20.268Z,-3.34
2023-02-05T01:24:46.861Z,-3.23
2023-02-05T01:27:13.296Z,-3.24
2023-02-05T01:29:39.710Z,-2.92
2023-02-05T01:32:06.206Z,-2.90
2023-02-05T01:34:32.649Z,-2.90
2023-02-05T01:36:59.079Z,-2.99
2023-02-05T01:39:25.523Z,-3.04
2023-02-05T01:41:51.992Z,-3.09
2023-02-05T01:44:24.863Z,-3.07
2023-02-05T01:46:53.546Z,-3.12
2023-02-05T01:49:26.659Z,-3.07
2023-02-05T01:51:54.990Z,-3.03
2023-02-05T01:54:25.478Z,-2.84
2023-02-05T01:57:01.166Z,-2.91
2023-02-05T01:59:30.730Z,-2.96
2023-02-05T02:02:00.757Z,-3.02
2023-02-05T02:04:47.289Z,-3.25
2023-02-05T02:07:16.604Z,-3.11
2023-02-05T02:09:45.470Z,-3.18
2023-02-05T02:12:16.244Z,-3.04
2023-02-05T02:14:46.776Z,-2.94
2023-02-05T02:17:17.348Z,-2.96
2023-02-05T02:19:58.638Z,-2.84
2023-02-05T02:22:56.694Z,-2.78
2023-02-05T02:25:29.541Z,-2.81
2023-02-05T02:28:02.878Z,-2.83
2023-02-05T02:30:42.600Z,-2.70
2023-02-05T02:33:18.766Z,-3.10
2023-02-05T02:36:03.491Z,-3.21
2023-02-05T02:38:43.587Z,-3.18
2023-02-05T02:41:18.868Z,-3.08
2023-02-05T02:43:54.136Z,-3.13
2023-02-05T02:46:32.251Z,-3.12
2023-02-05T02:49:02.938Z,-3.03
2023-02-05T02:51:31.675Z,-2.89
2023-02-05T02:54:01.601Z,-2.97
2023-02-05T02:56:32.145Z,-3.11
2023-02-05T02:59:06.202Z,-3.27
2023-02-05T03:01:35.577Z,-3.00
2023-02-05T03:04:11.043Z,-2.80
2023-02-05T03:06:40.082Z,-2.68
2023-02-05T03:09:13.192Z,-2.94
2023-02-05T03:11:39.626Z,-2.87
2023-02-05T03:14:06.176Z,-3.03
2023-02-05T03:16:33.181Z,-3.25
2023-02-05T03:19:00.232Z,-3.06
2023-02-05T03:21:42.808Z,-3.01
2023-02-05T03:24:10.392Z,-3.05
2023-02-05T03:26:38.219Z,-3.09
2023-02-05T03:29:14.396Z,-3.21
2023-02-05T03:31:59.463Z,-3.01
2023-02-05T03:34:35.353Z,-2.94
2023-02-05T03:37:19.552Z,-2.80
2023-02-05T03:39:59.803Z,-2.96
2023-02-05T03:42:36.524Z,-2.98
2023-02-05T03:45:23.886Z,-3.12
2023-02-05T03:48:13.394Z,-3.04
2023-02-05T03:50:54.357Z,-3.30
2023-02-05T03:53:57.900Z,-3.27
2023-02-05T03:56:39.277Z,-3.00
2023-02-05T03:59:06.930Z,-2.94
2023-02-05T04:01:34.729Z,-2.98
2023-02-05T04:04:01.224Z,-3.02
2023-02-05T04:06:27.791Z,-3.03
2023-02-05T04:08:54.252Z,-3.12
2023-02-05T04:11:20.784Z,-2.69
2023-02-05T04:13:47.152Z,-2.91
2023-02-05T04:16:13.691Z,-3.18
2023-02-05T04:18:40.154Z,-3.23
2023-02-05T04:21:06.734Z,-3.21
2023-02-05T04:23:33.149Z,-3.43
2023-02-05T04:25:59.561Z,-3.43
2023-02-05T04:28:26.038Z,-3.42
2023-02-05T04:30:52.484Z,-3.53
2023-02-05T04:33:18.985Z,-3.46
2023-02-05T04:35:45.415Z,-3.49
2023-02-05T04:38:11.818Z,-3.44
2023-02-05T04:40:38.648Z,-3.44
2023-02-05T04:43:05.153Z,-3.40
2023-02-05T04:45:33.601Z,-3.20
2023-02-05T04:48:00.624Z,-3.26
2023-02-05T04:50:27.476Z,-2.86
2023-02-05T04:52:54.261Z,-2.76
2023-02-05T04:55:21.060Z,-2.67
2023-02-05T04:57:47.468Z,-3.00
2023-02-05T05:00:14.369Z,-2.85
2023-02-05T05:02:41.002Z,-2.58
2023-02-05T05:05:07.874Z,-2.85
2023-02-05T05:07:34.308Z,-3.08
2023-02-05T05:10:00.716Z,-3.22
2023-02-05T05:12:27.113Z,-3.27
2023-02-05T05:14:53.524Z,-3.21
2023-02-05T05:17:19.943Z,-3.29
2023-02-05T05:19:48.513Z,-3.08
2023-02-05T05:22:14.940Z,-2.83
2023-02-05T05:24:41.451Z,-2.41
2023-02-05T05:27:07.892Z,-2.56
2023-02-05T05:29:35.239Z,-2.58
2023-02-05T05:32:01.723Z,-2.76
2023-02-05T05:34:28.398Z,-2.71
2023-02-05T05:36:55.334Z,-2.58
2023-02-05T05:39:40.359Z,-2.86
2023-02-05T05:42:25.656Z,-2.85
2023-02-05T05:44:52.183Z,-2.86
2023-02-05T05:47:19.447Z,-2.87
2023-02-05T05:49:46.286Z,-2.79
2023-02-05T05:52:12.882Z,-2.66
2023-02-05T05:54:39.318Z,-2.62
2023-02-05T05:57:07.842Z,-2.53
2023-02-05T05:59:34.514Z,-2.50
2023-02-05T06:02:02.557Z,-2.28
2023-02-05T06:04:29.034Z,-2.35
2023-02-05T06:06:55.526Z,-2.37
2023-02-05T06:09:21.955Z,-2.38
2023-02-05T06:11:48.766Z,-2.34
2023-02-05T06:14:15.169Z,-2.36
2023-02-05T06:16:41.596Z,-2.49
2023-02-05T06:19:08.269Z,-2.49
2023-02-05T06:21:34.684Z,-2.67
2023-02-05T06:24:01.056Z,-2.54
2023-02-05T06:26:27.658Z,-2.05
2023-02-05T06:28:57.125Z,-2.12
2023-02-05T06:31:24.329Z,-2.35
2023-02-05T06:33:50.903Z,-2.46
2023-02-05T06:36:17.336Z,-2.41
2023-02-05T06:38:43.749Z,-2.21
2023-02-05T06:41:10.411Z,-2.45
2023-02-05T06:43:36.849Z,-2.37
2023-02-05T06:46:03.393Z,-2.30
2023-02-05T06:48:29.819Z,-2.15
2023-02-05T06:50:56.252Z,-2.22
2023-02-05T06:53:23.194Z,-2.11
2023-02-05T06:55:49.728Z,-2.12
2023-02-05T06:58:16.129Z,-2.09
2023-02-05T07:00:43.177Z,-2.21
2023-02-05T07:03:09.574Z,-2.01
2023-02-05T07:05:36.323Z,-1.83
2023-02-05T07:08:04.230Z,-1.91
2023-02-05T07:10:30.881Z,-2.03
2023-02-05T07:12:57.342Z,-1.94
2023-02-05T07:15:23.747Z,-1.86
2023-02-05T07:17:50.466Z,-1.75
2023-02-05T07:20:18.715Z,-1.74
2023-02-05T07:22:47.075Z,-1.76
2023-02-05T07:25:13.476Z,-1.79
2023-02-05T07:27:39.866Z,-1.89
2023-02-05T07:30:07.386Z,-1.82
2023-02-05T07:32:33.775Z,-1.81
2023-02-05T07:35:00.300Z,-1.75
2023-02-05T07:37:26.990Z,-1.77
2023-02-05T07:39:53.400Z,-1.65
2023-02-05T07:42:19.815Z,-1.48
2023-02-05T07:44:46.190Z,-1.33
2023-02-05T07:47:15.602Z,-1.43
2023-02-05T07:49:42.064Z,-1.66
2023-02-05T07:52:08.443Z,-1.78
2023-02-05T07:54:35.558Z,-1.75
2023-02-05T07:57:02.093Z,-1.48
2023-02-05T07:59:28.714Z,-1.24
2023-02-05T08:01:55.126Z,-1.23
2023-02-05T08:04:21.547Z,-1.09
2023-02-05T08:06:47.956Z,-1.06
2023-02-05T08:09:14.629Z,-1.19
2023-02-05T08:11:41.030Z,-0.89
2023-02-05T08:14:07.464Z,-1.09
2023-02-05T08:16:34.022Z,-1.03
2023-02-05T08:19:00.458Z,-0.75
2023-02-05T08:21:26.892Z,-0.66
2023-02-05T08:23:53.683Z,-0.55
2023-02-05T08:26:20.289Z,-0.59
2023-02-05T08:28:46.680Z,-0.60
2023-02-05T08:31:19.031Z,-0.77
2023-02-05T08:33:47.683Z,-0.69
2023-02-05T08:36:14.425Z,-0.75
2023-02-05T08:38:40.845Z,-0.79
2023-02-05T08:41:12.869Z,-0.55
2023-02-05T08:43:44.432Z,-0.01
2023-02-05T08:46:12.292Z,0.13
2023-02-05T08:48:38.821Z,0.00
2023-02-05T08:51:05.859Z,-0.14
2023-02-05T08:53:32.941Z,0.25
2023-02-05T08:56:01.387Z,-0.07
2023-02-05T08:58:28.592Z,0.28
2023-02-05T09:01:10.363Z,-0.28
2023-02-05T09:03:37.102Z,-0.10
2023-02-05T09:06:09.695Z,-0.18
2023-02-05T09:08:37.465Z,0.29
2023-02-05T09:11:05.592Z,0.35
2023-02-05T09:13:33.042Z,0.63
2023-02-05T09:15:59.539Z,0.44
2023-02-05T09:18:26.076Z,0.41
2023-02-05T09:20:54.103Z,0.40
2023-02-05T09:23:20.623Z,0.49
2023-02-05T09:25:47.047Z,0.52
2023-02-05T09:28:14.806Z,0.44
2023-02-05T09:30:44.484Z,0.53
2023-02-05T09:33:12.161Z,0.48
2023-02-05T09:35:38.773Z,0.45
2023-02-05T09:38:05.651Z,0.54
2023-02-05T09:40:48.177Z,0.48
2023-02-05T09:43:21.200Z,0.53
2023-02-05T09:45:58.287Z,0.36
2023-02-05T09:48:49.876Z,0.35
2023-02-05T09:51:19.866Z,0.38
2023-02-05T09:53:52.850Z,0.54
2023-02-05T09:56:20.731Z,0.58
2023-02-05T09:58:53.387Z,0.63
2023-02-05T10:01:49.248Z,0.78
2023-02-05T10:04:15.738Z,0.93
2023-02-05T10:06:48.584Z,0.85
2023-02-05T10:09:44.631Z,0.90
2023-02-05T10:12:27.672Z,0.92
2023-02-05T10:15:16.066Z,1.07
2023-02-05T10:18:08.314Z,0.79
2023-02-05T10:21:12.448Z,0.56
2023-02-05T10:23:58.623Z,0.51
2023-02-05T10:26:34.973Z,0.56
2023-02-05T10:29:15.598Z,0.57
2023-02-05T10:32:00.456Z,0.76
2023-02-05T10:34:59.871Z,0.73
2023-02-05T10:37:47.920Z,0.78
2023-02-05T10:40:18.096Z,0.93
2023-02-05T10:42:50.349Z,0.93
2023-02-05T10:45:27.786Z,0.99
2023-02-05T10:48:09.954Z,0.92
2023-02-05T10:50:59.818Z,0.83
2023-02-05T10:53:27.992Z,0.78
2023-02-05T10:55:56.358Z,0.74
2023-02-05T10:58:45.104Z,1.00
2023-02-05T11:01:16.306Z,0.91
2023-02-05T11:03:52.656Z,0.76
2023-02-05T11:06:20.727Z,1.07
2023-02-05T11:08:47.868Z,1.02
2023-02-05T11:11:28.309Z,0.87
2023-02-05T11:14:00.169Z,0.90
2023-02-05T11:16:46.877Z,0.78
2023-02-05T11:19:23.210Z,0.86
2023-02-05T11:21:52.886Z,0.95
2023-02-05T11:24:36.178Z,0.80
2023-02-05T11:27:19.570Z,1.12
2023-02-05T11:29:45.973Z,1.23
2023-02-05T11:32:38.669Z,0.98
2023-02-05T11:35:21.238Z,1.21
2023-02-05T11:37:55.102Z,1.05
2023-02-05T11:40:24.564Z,1.21
2023-02-05T11:43:02.282Z,1.17
2023-02-05T11:45:30.017Z,1.09
2023-02-05T11:48:00.894Z,0.93
2023-02-05T11:50:29.340Z,1.00
2023-02-05T11:53:09.101Z,0.85
2023-02-05T11:55:36.633Z,1.05
2023-02-05T11:58:06.292Z,1.09
2023-02-05T12:00:34.330Z,1.16
2023-02-05T12:03:17.449Z,0.96
2023-02-05T12:05:50.824Z,1.10
2023-02-05T12:08:35.410Z,1.11
2023-02-05T12:11:21.407Z,1.08
2023-02-05T12:14:03.296Z,1.00
2023-02-05T12:16:53.731Z,1.05
2023-02-05T12:19:23.942Z,0.97
2023-02-05T12:22:02.745Z,1.00
2023-02-05T12:24:53.082Z,1.10
2023-02-05T12:27:39.624Z,1.27
2023-02-05T12:30:30.831Z,1.64
2023-02-05T12:33:07.161Z,1.36
2023-02-05T12:36:07.942Z,1.38
2023-02-05T12:39:03.325Z,1.30
2023-02-05T12:41:44.004Z,1.04
2023-02-05T12:44:39.353Z,1.43
2023-02-05T12:47:32.381Z,1.48
2023-02-05T12:50:10.922Z,1.40
2023-02-05T12:53:02.606Z,1.57
2023-02-05T12:55:51.086Z,1.42
2023-02-05T12:58:20.659Z,1.36
2023-02-05T13:00:57.600Z,1.58
2023-02-05T13:03:27.015Z,1.58
2023-02-05T13:06:10.754Z,1.41
2023-02-05T13:08:46.448Z,1.34
2023-02-05T13:11:22.838Z,1.44
2023-02-05T13:14:09.297Z,1.68
2023-02-05T13:16:43.334Z,1.18
2023-02-05T13:19:32.068Z,1.43
2023-02-05T13:22:20.471Z,1.41
2023-02-05T13:25:10.594Z,1.64
2023-02-05T13:28:01.149Z,1.63
2023-02-05T13:30:46.853Z,1.32
2023-02-05T13:33:13.654Z,1.31
2023-02-05T13:35:49.607Z,1.27
2023-02-05T13:38:29.253Z,1.49
2023-02-05T13:41:28.488Z,1.21
2023-02-05T13:44:06.834Z,1.39
2023-02-05T13:46:49.405Z,1.11
2023-02-05T13:49:46.666Z,1.15
2023-02-05T13:52:40.958Z,1.13
2023-02-05T13:55:26.172Z,1.29
2023-02-05T13:58:20.458Z,1.36
2023-02-05T14:00:51.854Z,1.39
2023-02-05T14:03:35.257Z,1.51
2023-02-05T14:06:24.058Z,1.57
2023-02-05T14:08:58.231Z,1.38
2023-02-05T14:11:24.974Z,1.32
2023-02-05T14:14:16.284Z,1.34
2023-02-05T14:16:43.000Z,1.36
2023-02-05T14:19:17.669Z,1.42
2023-02-05T14:22:07.397Z,1.33
2023-02-05T14:24:45.629Z,1.34
2023-02-05T14:27:42.085Z,1.32
2023-02-05T14:30:47.112Z,1.35
2023-02-05T14:33:35.171Z,1.67
2023-02-05T14:36:17.037Z,1.73
2023-02-05T14:38:50.897Z,1.53
2023-02-05T14:41:20.006Z,1.41
2023-02-05T14:43:59.828Z,1.67
2023-02-05T14:46:46.822Z,1.52
2023-02-05T14:49:26.215Z,1.65
2023-02-05T14:52:00.119Z,1.78
2023-02-05T14:54:57.731Z,1.60
2023-02-05T14:57:28.977Z,1.43
2023-02-05T15:00:04.008Z,1.52
2023-02-05T15:02:59.536Z,1.57
2023-02-05T15:05:31.922Z,1.60
2023-02-05T15:08:08.476Z,1.56
2023-02-05T15:10:46.049Z,1.65
2023-02-05T15:13:18.559Z,1.68
2023-02-05T15:16:06.920Z,1.78
2023-02-05T15:18:38.614Z,1.70
2023-02-05T15:21:05.942Z,1.64
2023-02-05T15:23:48.627Z,1.30
2023-02-05T15:26:30.475Z,1.37
2023-02-05T15:29:05.827Z,1.51
2023-02-05T15:31:45.423Z,1.21
2023-02-05T15:34:37.355Z,1.17
2023-02-05T15:37:09.961Z,1.42
2023-02-05T15:39:55.041Z,1.39
2023-02-05T15:42:36.267Z,1.42
2023-02-05T15:45:21.230Z,1.42
2023-02-05T15:47:58.832Z,1.42
2023-02-05T15:50:25.273Z,1.18
2023-02-05T15:52:51.676Z,1.11
2023-02-05T15:55:21.224Z,1.12
2023-02-05T15:57:49.388Z,1.18
2023-02-05T16:00:29.125Z,1.37
2023-02-05T16:02:57.959Z,1.31
2023-02-05T16:05:26.271Z,1.52
2023-02-05T16:07:57.485Z,1.33
2023-02-05T16:10:26.937Z,1.31
2023-02-05T16:13:04.621Z,1.36
2023-02-05T16:15:38.530Z,1.34
2023-02-05T16:18:09.336Z,1.14
2023-02-05T16:20:40.440Z,1.05
2023-02-05T16:23:23.985Z,0.89
2023-02-05T16:26:00.582Z,0.91
2023-02-05T16:28:43.277Z,0.83
2023-02-05T16:31:17.853Z,1.00
2023-02-05T16:33:58.581Z,1.03
2023-02-05T16:36:30.153Z,1.08
2023-02-05T16:39:00.580Z,1.18
2023-02-05T16:41:32.194Z,1.05
2023-02-05T16:44:03.422Z,0.95
2023-02-05T16:46:31.527Z,1.00
2023-02-05T16:49:04.589Z,1.10
2023-02-05T16:51:35.722Z,0.96
2023-02-05T16:54:10.876Z,1.15
2023-02-05T16:56:50.576Z,1.15
2023-02-05T16:59:23.871Z,0.97
2023-02-05T17:01:52.021Z,0.92
2023-02-05T17:04:26.933Z,0.85
2023-02-05T17:06:57.840Z,0.90
2023-02-05T17:09:36.210Z,1.14
2023-02-05T17:12:33.422Z,1.13
2023-02-05T17:15:15.121Z,0.96
2023-02-05T17:17:50.090Z,0.86
2023-02-05T17:20:16.585Z,0.91
2023-02-05T17:23:05.125Z,0.73
2023-02-05T17:25:36.707Z,0.73
2023-02-05T17:28:05.354Z,1.05
2023-02-05T17:30:34.075Z,1.13
2023-02-05T17:33:00.766Z,1.29
2023-02-05T17:35:27.583Z,1.18
2023-02-05T17:37:54.072Z,1.11
2023-02-05T17:40:20.725Z,0.91
2023-02-05T17:42:47.989Z,1.02
2023-02-05T17:45:19.060Z,1.08
2023-02-05T17:47:45.615Z,1.10
2023-02-05T17:50:12.375Z,1.19
2023-02-05T17:52:38.908Z,1.16
2023-02-05T17:55:06.344Z,1.20
2023-02-05T17:57:33.882Z,1.11
2023-02-05T18:00:00.812Z,0.97
2023-02-05T18:02:27.415Z,1.01
2023-02-05T18:04:53.865Z,1.08
2023-02-05T18:07:39.282Z,1.08
2023-02-05T18:10:06.594Z,1.11
2023-02-05T18:12:33.408Z,1.05
2023-02-05T18:14:59.840Z,0.95
2023-02-05T18:17:26.304Z,0.95
2023-02-05T18:19:52.783Z,0.76
2023-02-05T18:22:19.173Z,0.95
2023-02-05T18:24:45.611Z,1.10
2023-02-05T18:27:12.191Z,1.11
2023-02-05T18:29:38.845Z,1.02
2023-02-05T18:32:05.930Z,1.09
2023-02-05T18:34:32.747Z,0.99
2023-02-05T18:36:59.493Z,1.07
2023-02-05T18:39:29.571Z,1.18
2023-02-05T18:41:56.900Z,1.26
2023-02-05T18:44:23.930Z,1.27
2023-02-05T18:46:50.376Z,1.11
2023-02-05T18:49:16.841Z,1.07
2023-02-05T18:51:43.722Z,1.11
2023-02-05T18:54:10.634Z,1.09
2023-02-05T18:56:38.273Z,1.08
2023-02-05T18:59:07.205Z,1.02
2023-02-05T19:01:39.737Z,0.99
2023-02-05T19:04:13.743Z,1.02
2023-02-05T19:06:46.064Z,0.95
2023-02-05T19:09:12.569Z,1.06
2023-02-05T19:11:41.400Z,1.06
2023-02-05T19:14:11.265Z,1.17
2023-02-05T19:16:38.962Z,1.12
2023-02-05T19:19:06.629Z,1.19
2023-02-05T19:21:33.812Z,1.30
2023-02-05T19:24:05.409Z,1.36
2023-02-05T19:26:32.921Z,1.24
2023-02-05T19:29:01.310Z,1.18
2023-02-05T19:31:30.079Z,1.28
2023-02-05T19:33:57.160Z,1.38
2023-02-05T19:36:25.308Z,1.31
2023-02-05T19:38:51.911Z,1.24
2023-02-05T19:41:21.690Z,1.33
2023-02-05T19:43:59.746Z,1.36
2023-02-05T19:46:28.158Z,1.45
2023-02-05T19:48:58.936Z,1.30
2023-02-05T19:51:25.701Z,1.36
2023-02-05T19:53:52.162Z,1.29
2023-02-05T19:56:21.010Z,1.40
2023-02-05T19:58:50.708Z,1.44
2023-02-05T20:01:28.205Z,1.41
2023-02-05T20:03:58.126Z,1.33
2023-02-05T20:06:27.729Z,1.41
2023-02-05T20:08:54.184Z,1.46
2023-02-05T20:11:20.958Z,1.40
2023-02-05T20:13:48.057Z,1.40
2023-02-05T20:16:19.952Z,1.30
2023-02-05T20:18:47.697Z,1.45
2023-02-05T20:21:18.511Z,1.46
2023-02-05T20:23:46.353Z,1.54
2023-02-05T20:26:14.395Z,1.57
2023-02-05T20:29:00.896Z,1.38
2023-02-05T20:31:37.768Z,1.47
2023-02-05T20:34:07.627Z,1.43
2023-02-05T20:36:35.153Z,1.38
2023-02-05T20:39:05.825Z,1.49
2023-02-05T20:41:32.958Z,1.40
2023-02-05T20:43:59.631Z,1.47
2023-02-05T20:46:26.229Z,1.44
2023-02-05T20:48:52.932Z,1.48
2023-02-05T20:51:20.659Z,1.27
2023-02-05T20:53:48.382Z,1.41
2023-02-05T20:56:17.824Z,1.29
2023-02-05T20:58:44.490Z,1.36
2023-02-05T21:01:14.165Z,1.34
2023-02-05T21:03:44.042Z,1.36
2023-02-05T21:06:11.385Z,1.40
2023-02-05T21:08:39.663Z,1.41
2023-02-05T21:11:06.675Z,1.31
2023-02-05T21:13:36.749Z,1.29
2023-02-05T21:16:04.013Z,1.31
2023-02-05T21:18:31.341Z,1.30
2023-02-05T21:21:19.001Z,1.43
2023-02-05T21:23:48.642Z,1.42
2023-02-05T21:26:23.350Z,1.37
2023-02-05T21:28:53.638Z,1.35
2023-02-05T21:31:20.269Z,1.26
2023-02-05T21:33:46.665Z,1.33
2023-02-05T21:36:13.834Z,1.35
2023-02-05T21:38:41.914Z,1.26
2023-02-05T21:41:17.163Z,1.19
2023-02-05T21:43:49.373Z,1.18
2023-02-05T21:46:16.097Z,1.18
2023-02-05T21:48:42.811Z,1.08
2023-02-05T21:51:12.587Z,1.33
2023-02-05T21:53:39.678Z,1.28
2023-02-05T21:56:08.422Z,1.52
2023-02-05T21:58:36.773Z,1.48
2023-02-05T22:01:15.112Z,1.41
2023-02-05T22:03:42.775Z,1.49
2023-02-05T22:06:09.680Z,1.53
2023-02-05T22:08:37.670Z,1.47
2023-02-05T22:11:06.494Z,1.45
2023-02-05T22:13:38.729Z,1.43
2023-02-05T22:16:08.384Z,1.34
2023-02-05T22:18:35.998Z,1.44
2023-02-05T22:21:09.945Z,1.49
2023-02-05T22:23:36.362Z,1.40
2023-02-05T22:26:03.227Z,1.29
2023-02-05T22:28:30.130Z,1.26
2023-02-05T22:31:05.928Z,1.26
2023-02-05T22:33:33.894Z,1.24
2023-02-05T22:36:00.987Z,1.23
2023-02-05T22:38:30.963Z,1.31
2023-02-05T22:40:58.109Z,1.24
2023-02-05T22:43:24.602Z,1.11
2023-02-05T22:45:51.152Z,1.17
2023-02-05T22:48:17.941Z,1.28
2023-02-05T22:50:45.640Z,1.32
2023-02-05T22:53:13.202Z,1.34
2023-02-05T22:55:40.580Z,1.34
2023-02-05T22:58:07.724Z,1.45
2023-02-05T23:00:34.516Z,1.37
2023-02-05T23:03:01.367Z,1.55
2023-02-05T23:05:33.478Z,1.39
2023-02-05T23:08:01.571Z,1.37
2023-02-05T23:10:30.589Z,1.35
2023-02-05T23:12:57.384Z,1.36
2023-02-05T23:15:23.889Z,1.31
2023-02-05T23:17:50.568Z,1.52
2023-02-05T23:20:17.215Z,1.49
2023-02-05T23:22:43.999Z,1.42
2023-02-05T23:25:10.922Z,1.47
2023-02-05T23:27:37.584Z,1.48
2023-02-05T23:30:05.620Z,1.34
2023-02-05T23:32:33.168Z,1.43
2023-02-05T23:34:59.572Z,1.40
2023-02-05T23:37:26.166Z,1.38
2023-02-05T23:39:52.595Z,1.45
2023-02-05T23:42:19.015Z,1.37
2023-02-05T23:44:45.463Z,1.24
2023-02-05T23:47:11.891Z,1.07
2023-02-05T23:49:38.457Z,0.96
2023-02-05T23:52:04.930Z,1.11
2023-02-05T23:54:31.449Z,0.97
2023-02-05T23:57:02.727Z,1.05
2023-02-05T23:59:29.170Z,1.10
